createdAt,value
2019-02-06T00:00:40.320Z,0.00
2019-02-06T00:01:40.372Z,0.00
2019-02-06T00:03:33.350Z,0.00
2019-02-06T00:04:33.400Z,0.00
2019-02-06T00:06:26.378Z,0.00
2019-02-06T00:07:26.433Z,0.00
2019-02-06T00:09:19.419Z,0.00
2019-02-06T00:10:19.465Z,0.00
2019-02-06T00:12:12.454Z,0.00
2019-02-06T00:13:12.726Z,0.00
2019-02-06T00:15:05.517Z,0.00
2019-02-06T00:16:05.530Z,0.00
2019-02-06T00:17:58.511Z,0.00
2019-02-06T00:18:58.556Z,0.00
2019-02-06T00:20:51.538Z,0.00
2019-02-06T00:21:51.591Z,0.00
2019-02-06T00:23:44.614Z,0.00
2019-02-06T00:24:44.616Z,0.00
2019-02-06T00:26:37.591Z,0.00
2019-02-06T00:27:37.643Z,0.00
2019-02-06T00:29:30.625Z,0.00
2019-02-06T00:30:30.669Z,0.00
2019-02-06T00:32:23.665Z,0.00
2019-02-06T00:33:23.735Z,0.00
2019-02-06T00:35:25.459Z,0.00
2019-02-06T00:36:16.745Z,0.00
2019-02-06T00:38:09.731Z,0.00
2019-02-06T00:39:09.777Z,0.00
2019-02-06T00:41:02.742Z,0.00
2019-02-06T00:42:02.803Z,0.00
2019-02-06T00:43:55.799Z,0.00
2019-02-06T00:44:55.827Z,0.00
2019-02-06T00:46:48.804Z,0.00
2019-02-06T00:47:48.853Z,0.00
2019-02-06T00:49:41.836Z,0.00
2019-02-06T00:50:41.908Z,0.00
2019-02-06T00:52:34.875Z,0.00
2019-02-06T00:53:34.945Z,0.00
2019-02-06T00:55:27.940Z,0.00
2019-02-06T00:56:27.983Z,0.00
2019-02-06T00:58:20.932Z,0.00
2019-02-06T00:59:20.999Z,0.00
2019-02-06T01:01:13.964Z,0.00
2019-02-06T01:02:14.020Z,0.00
2019-02-06T01:04:07.007Z,0.00
2019-02-06T01:05:07.053Z,0.00
2019-02-06T01:07:00.028Z,0.00
2019-02-06T01:08:00.075Z,0.00
2019-02-06T01:09:53.071Z,0.00
2019-02-06T01:10:53.103Z,0.00
2019-02-06T01:12:46.078Z,0.00
2019-02-06T01:13:46.129Z,0.00
2019-02-06T01:15:39.120Z,0.00
2019-02-06T01:16:39.167Z,0.00
2019-02-06T01:18:32.148Z,0.00
2019-02-06T01:19:32.194Z,0.00
2019-02-06T01:21:25.170Z,0.00
2019-02-06T01:22:25.218Z,0.00
2019-02-06T01:24:18.204Z,0.00
2019-02-06T01:25:18.252Z,0.00
2019-02-06T01:27:11.231Z,0.00
2019-02-06T01:28:11.291Z,0.00
2019-02-06T01:30:04.265Z,0.00
2019-02-06T01:31:04.310Z,0.00
2019-02-06T01:32:57.409Z,0.00
2019-02-06T01:33:57.362Z,0.00
2019-02-06T01:35:50.463Z,0.00
2019-02-06T01:36:50.366Z,0.00
2019-02-06T01:38:43.354Z,0.00
2019-02-06T01:39:43.404Z,0.00
2019-02-06T01:41:36.514Z,0.00
2019-02-06T01:42:36.473Z,0.00
2019-02-06T01:44:29.430Z,0.00
2019-02-06T01:45:29.476Z,0.00
2019-02-06T01:47:22.454Z,0.00
2019-02-06T01:48:22.504Z,0.00
2019-02-06T01:50:15.481Z,0.00
2019-02-06T01:51:15.528Z,0.00
2019-02-06T01:53:08.508Z,0.00
2019-02-06T01:54:08.583Z,0.00
2019-02-06T01:56:01.543Z,0.00
2019-02-06T01:57:01.605Z,0.00
2019-02-06T01:58:54.579Z,0.00
2019-02-06T01:59:54.616Z,0.00
2019-02-06T02:01:47.594Z,0.00
2019-02-06T02:02:47.641Z,0.00
2019-02-06T02:04:40.635Z,0.00
2019-02-06T02:05:40.696Z,0.00
2019-02-06T02:07:33.646Z,0.00
2019-02-06T02:08:33.706Z,0.00
2019-02-06T02:10:26.684Z,0.00
2019-02-06T02:11:26.732Z,0.00
2019-02-06T02:13:19.716Z,0.00
2019-02-06T02:14:19.768Z,0.00
2019-02-06T02:16:12.754Z,0.00
2019-02-06T02:17:12.798Z,0.00
2019-02-06T02:19:05.780Z,0.00
2019-02-06T02:20:05.827Z,0.00
2019-02-06T02:21:58.799Z,0.00
2019-02-06T02:22:58.864Z,0.00
2019-02-06T02:24:51.862Z,0.00
2019-02-06T02:25:51.891Z,0.00
2019-02-06T02:27:44.862Z,0.00
2019-02-06T02:28:44.930Z,0.00
2019-02-06T02:30:37.893Z,0.00
2019-02-06T02:31:37.940Z,0.00
2019-02-06T02:33:30.915Z,0.00
2019-02-06T02:34:30.969Z,0.00
2019-02-06T02:36:23.946Z,0.00
2019-02-06T02:37:23.997Z,0.00
2019-02-06T02:39:16.982Z,0.00
2019-02-06T02:40:17.034Z,0.00
2019-02-06T02:42:10.017Z,0.00
2019-02-06T02:43:10.070Z,0.00
2019-02-06T02:45:03.049Z,0.00
2019-02-06T02:46:03.102Z,0.00
2019-02-06T02:47:56.083Z,0.00
2019-02-06T02:48:56.136Z,0.00
2019-02-06T02:50:49.329Z,0.00
2019-02-06T02:51:49.164Z,0.00
2019-02-06T02:53:42.136Z,0.00
2019-02-06T02:54:42.194Z,0.00
2019-02-06T02:56:35.182Z,0.00
2019-02-06T02:57:35.217Z,0.00
2019-02-06T02:59:28.193Z,0.00
2019-02-06T03:00:28.246Z,0.00
2019-02-06T03:02:21.231Z,0.00
2019-02-06T03:03:21.282Z,0.00
2019-02-06T03:05:14.261Z,0.00
2019-02-06T03:06:27.157Z,0.00
2019-02-06T03:08:08.804Z,0.00
2019-02-06T03:09:08.965Z,0.00
2019-02-06T03:11:01.833Z,0.00
2019-02-06T03:12:01.877Z,0.00
2019-02-06T03:13:54.866Z,0.00
2019-02-06T03:14:54.919Z,0.00
2019-02-06T03:16:47.910Z,0.00
2019-02-06T03:17:47.946Z,0.00
2019-02-06T03:19:40.925Z,0.00
2019-02-06T03:20:40.971Z,0.00
2019-02-06T03:22:33.945Z,0.00
2019-02-06T03:23:33.998Z,0.00
2019-02-06T03:25:26.989Z,0.00
2019-02-06T03:26:27.035Z,0.00
2019-02-06T03:28:20.015Z,0.00
2019-02-06T03:29:20.067Z,0.00
2019-02-06T03:31:13.051Z,0.00
2019-02-06T03:32:13.098Z,0.00
2019-02-06T03:34:06.204Z,0.00
2019-02-06T03:35:06.144Z,0.00
2019-02-06T03:36:59.137Z,0.00
2019-02-06T03:37:59.177Z,0.00
2019-02-06T03:39:52.154Z,0.00
2019-02-06T03:40:52.237Z,0.00
2019-02-06T03:42:45.224Z,0.00
2019-02-06T03:43:45.225Z,0.00
2019-02-06T03:45:38.212Z,0.00
2019-02-06T03:46:38.266Z,0.00
2019-02-06T03:48:31.231Z,0.00
2019-02-06T03:49:31.297Z,0.00
2019-02-06T03:51:24.272Z,0.00
2019-02-06T03:52:24.319Z,0.00
2019-02-06T03:54:17.291Z,0.00
2019-02-06T03:55:17.344Z,0.00
2019-02-06T03:57:10.322Z,0.00
2019-02-06T03:58:10.369Z,0.00
2019-02-06T04:00:03.372Z,0.00
2019-02-06T04:01:03.401Z,0.00
2019-02-06T04:02:56.373Z,0.00
2019-02-06T04:03:56.427Z,0.00
2019-02-06T04:05:49.405Z,0.00
2019-02-06T04:06:55.052Z,0.00
2019-02-06T04:08:42.936Z,0.00
2019-02-06T04:09:42.989Z,0.00
2019-02-06T04:11:35.979Z,0.00
2019-02-06T04:12:36.011Z,0.00
2019-02-06T04:14:29.001Z,0.00
2019-02-06T04:15:29.041Z,0.00
2019-02-06T04:17:22.015Z,0.00
2019-02-06T04:18:22.066Z,0.00
2019-02-06T04:20:15.042Z,0.00
2019-02-06T04:21:15.086Z,0.00
2019-02-06T04:23:08.070Z,0.00
2019-02-06T04:24:08.114Z,0.00
2019-02-06T04:26:01.099Z,0.00
2019-02-06T04:27:01.193Z,0.00
2019-02-06T04:28:54.141Z,0.00
2019-02-06T04:29:54.199Z,0.00
2019-02-06T04:31:47.182Z,0.00
2019-02-06T04:32:47.244Z,0.00
2019-02-06T04:34:40.196Z,0.00
2019-02-06T04:35:40.250Z,0.00
2019-02-06T04:37:33.234Z,0.00
2019-02-06T04:38:33.273Z,0.00
2019-02-06T04:40:26.263Z,0.00
2019-02-06T04:41:26.306Z,0.00
2019-02-06T04:43:19.288Z,0.00
2019-02-06T04:44:19.346Z,0.00
2019-02-06T04:46:12.321Z,0.00
2019-02-06T04:47:12.662Z,0.00
2019-02-06T04:49:05.356Z,0.00
2019-02-06T04:50:05.410Z,0.00
2019-02-06T04:51:58.395Z,0.00
2019-02-06T04:52:58.459Z,0.00
2019-02-06T04:54:51.418Z,0.00
2019-02-06T04:55:51.474Z,0.00
2019-02-06T04:57:44.451Z,0.00
2019-02-06T04:58:44.496Z,0.00
2019-02-06T05:00:37.485Z,0.00
2019-02-06T05:01:37.531Z,0.00
2019-02-06T05:03:30.505Z,0.00
2019-02-06T05:04:30.551Z,0.00
2019-02-06T05:06:24.039Z,0.00
2019-02-06T05:07:24.155Z,0.00
2019-02-06T05:09:17.085Z,0.00
2019-02-06T05:10:17.133Z,0.00
2019-02-06T05:12:10.115Z,0.00
2019-02-06T05:13:10.163Z,0.00
2019-02-06T05:15:03.139Z,0.00
2019-02-06T05:16:03.193Z,0.00
2019-02-06T05:17:56.177Z,0.00
2019-02-06T05:18:56.224Z,0.00
2019-02-06T05:20:49.216Z,0.00
2019-02-06T05:21:49.313Z,0.00
2019-02-06T05:23:42.383Z,0.00
2019-02-06T05:24:42.325Z,0.00
2019-02-06T05:26:35.292Z,0.00
2019-02-06T05:27:35.340Z,0.00
2019-02-06T05:29:28.305Z,0.00
2019-02-06T05:30:28.363Z,0.00
2019-02-06T05:32:21.355Z,0.00
2019-02-06T05:33:21.378Z,0.00
2019-02-06T05:35:14.353Z,0.00
2019-02-06T05:36:14.410Z,0.00
2019-02-06T05:38:07.405Z,0.00
2019-02-06T05:39:07.433Z,0.00
2019-02-06T05:41:00.442Z,0.00
2019-02-06T05:42:00.472Z,0.00
2019-02-06T05:43:53.434Z,0.00
2019-02-06T05:44:53.480Z,0.00
2019-02-06T05:46:46.464Z,0.00
2019-02-06T05:47:46.534Z,0.00
2019-02-06T05:49:39.482Z,0.00
2019-02-06T05:50:39.556Z,0.00
2019-02-06T05:52:32.511Z,0.00
2019-02-06T05:53:32.607Z,0.00
2019-02-06T05:55:25.596Z,0.00
2019-02-06T05:56:25.590Z,0.00
2019-02-06T05:58:18.564Z,0.00
2019-02-06T05:59:18.614Z,0.00
2019-02-06T06:01:11.589Z,0.00
2019-02-06T06:02:11.720Z,0.00
2019-02-06T06:04:04.606Z,0.00
2019-02-06T06:05:04.658Z,0.00
2019-02-06T06:06:59.168Z,0.00
2019-02-06T06:07:59.183Z,0.00
2019-02-06T06:09:52.164Z,0.00
2019-02-06T06:10:52.219Z,0.00
2019-02-06T06:12:45.197Z,0.00
2019-02-06T06:13:45.243Z,0.00
2019-02-06T06:15:38.227Z,0.00
2019-02-06T06:16:38.274Z,0.00
2019-02-06T06:18:31.252Z,0.00
2019-02-06T06:19:31.387Z,0.00
2019-02-06T06:21:24.288Z,0.00
2019-02-06T06:22:24.338Z,0.00
2019-02-06T06:24:17.325Z,0.00
2019-02-06T06:25:17.417Z,0.00
2019-02-06T06:27:10.354Z,0.00
2019-02-06T06:28:10.408Z,0.00
2019-02-06T06:30:03.428Z,0.00
2019-02-06T06:31:03.502Z,0.00
2019-02-06T06:32:56.455Z,4.00
2019-02-06T06:33:56.489Z,4.00
2019-02-06T06:35:49.480Z,0.00
2019-02-06T06:36:49.515Z,4.00
2019-02-06T06:38:42.492Z,4.00
2019-02-06T06:39:42.536Z,4.00
2019-02-06T06:41:35.648Z,8.00
2019-02-06T06:42:35.567Z,8.00
2019-02-06T06:44:28.554Z,12.00
2019-02-06T06:45:28.631Z,16.00
2019-02-06T06:47:21.597Z,24.00
2019-02-06T06:48:21.641Z,28.00
2019-02-06T06:50:14.622Z,36.00
2019-02-06T06:51:14.664Z,36.00
2019-02-06T06:53:07.662Z,52.00
2019-02-06T06:54:07.702Z,56.00
2019-02-06T06:56:00.702Z,68.00
2019-02-06T06:57:00.733Z,76.00
2019-02-06T06:58:53.709Z,92.00
2019-02-06T06:59:55.649Z,104.00
2019-02-06T07:01:46.772Z,124.00
2019-02-06T07:02:46.782Z,136.00
2019-02-06T07:04:39.766Z,160.00
2019-02-06T07:05:39.820Z,180.00
2019-02-06T07:07:32.806Z,216.00
2019-02-06T07:08:32.862Z,240.00
2019-02-06T07:10:25.842Z,284.00
2019-02-06T07:11:25.885Z,316.00
2019-02-06T07:13:18.869Z,376.00
2019-02-06T07:14:18.915Z,408.00
2019-02-06T07:16:11.948Z,460.00
2019-02-06T07:17:11.958Z,488.00
2019-02-06T07:19:04.964Z,544.00
2019-02-06T07:20:04.978Z,576.00
2019-02-06T07:21:57.989Z,628.00
2019-02-06T07:22:58.017Z,660.00
2019-02-06T07:24:50.998Z,712.00
2019-02-06T07:25:51.059Z,740.00
2019-02-06T07:27:44.025Z,796.00
2019-02-06T07:28:44.080Z,828.00
2019-02-06T07:30:37.055Z,892.00
2019-02-06T07:31:37.108Z,920.00
2019-02-06T07:33:30.125Z,980.00
2019-02-06T07:34:30.132Z,1012.00
2019-02-06T07:36:23.625Z,1076.00
2019-02-06T07:37:23.674Z,1116.00
2019-02-06T07:39:16.689Z,1208.00
2019-02-06T07:40:16.771Z,1264.00
2019-02-06T07:42:09.723Z,1376.00
2019-02-06T07:43:09.769Z,1432.00
2019-02-06T07:45:02.748Z,1540.00
2019-02-06T07:46:02.803Z,1596.00
2019-02-06T07:47:55.772Z,1688.00
2019-02-06T07:48:55.811Z,1744.00
2019-02-06T07:50:48.783Z,1864.00
2019-02-06T07:51:50.466Z,1932.00
2019-02-06T07:53:41.831Z,2052.00
2019-02-06T07:54:41.864Z,2120.00
2019-02-06T07:56:34.852Z,2260.00
2019-02-06T07:57:34.924Z,2340.00
2019-02-06T07:59:27.897Z,2456.00
2019-02-06T08:00:27.956Z,2500.00
2019-02-06T08:02:20.915Z,2544.00
2019-02-06T08:03:20.986Z,2576.00
2019-02-06T08:05:13.952Z,2664.00
2019-02-06T08:06:13.997Z,2712.00
2019-02-06T08:08:06.987Z,2812.00
2019-02-06T08:09:07.055Z,2876.00
2019-02-06T08:11:02.814Z,2888.00
2019-02-06T08:12:00.067Z,2920.00
2019-02-06T08:13:53.052Z,2920.00
2019-02-06T08:14:53.101Z,2968.00
2019-02-06T08:16:46.079Z,3016.00
2019-02-06T08:17:46.133Z,3036.00
2019-02-06T08:19:39.116Z,3024.00
2019-02-06T08:20:39.162Z,2908.00
2019-02-06T08:22:32.167Z,2752.00
2019-02-06T08:23:32.199Z,2740.00
2019-02-06T08:25:25.212Z,2820.00
2019-02-06T08:26:25.245Z,2868.00
2019-02-06T08:28:18.236Z,2948.00
2019-02-06T08:29:18.285Z,2984.00
2019-02-06T08:31:11.255Z,3020.00
2019-02-06T08:32:11.308Z,2956.00
2019-02-06T08:34:04.307Z,2804.00
2019-02-06T08:35:04.359Z,2784.00
2019-02-06T08:36:57.308Z,2884.00
2019-02-06T08:37:57.367Z,2976.00
2019-02-06T08:39:50.357Z,3032.00
2019-02-06T08:40:50.400Z,3012.00
2019-02-06T08:42:43.382Z,3068.00
2019-02-06T08:43:43.462Z,3128.00
2019-02-06T08:45:36.442Z,3260.00
2019-02-06T08:46:36.468Z,3324.00
2019-02-06T08:48:29.444Z,3372.00
2019-02-06T08:49:29.494Z,3376.00
2019-02-06T08:51:22.474Z,3436.00
2019-02-06T08:52:22.526Z,3536.00
2019-02-06T08:54:15.534Z,3784.00
2019-02-06T08:55:15.558Z,3860.00
2019-02-06T08:57:08.535Z,3924.00
2019-02-06T08:58:08.606Z,3944.00
2019-02-06T09:00:01.617Z,4008.00
2019-02-06T09:01:01.642Z,4076.00
2019-02-06T09:02:54.611Z,4240.00
2019-02-06T09:03:54.654Z,4364.00
2019-02-06T09:05:47.640Z,4632.00
2019-02-06T09:06:47.692Z,4772.00
2019-02-06T09:08:40.690Z,5092.00
2019-02-06T09:09:43.505Z,5240.00
2019-02-06T09:11:33.732Z,5436.00
2019-02-06T09:12:33.780Z,5532.00
2019-02-06T09:14:26.765Z,5616.00
2019-02-06T09:15:27.520Z,5612.00
2019-02-06T09:17:19.786Z,5644.00
2019-02-06T09:18:19.840Z,5664.00
2019-02-06T09:20:12.826Z,5676.00
2019-02-06T09:21:12.876Z,5760.00
2019-02-06T09:23:05.852Z,6032.00
2019-02-06T09:24:05.919Z,6164.00
2019-02-06T09:25:58.914Z,6348.00
2019-02-06T09:26:58.940Z,6432.00
2019-02-06T09:28:52.464Z,6620.00
2019-02-06T09:29:52.522Z,6744.00
2019-02-06T09:31:45.451Z,6944.00
2019-02-06T09:32:45.509Z,7008.00
2019-02-06T09:34:38.485Z,6980.00
2019-02-06T09:35:38.536Z,6948.00
2019-02-06T09:37:31.546Z,6964.00
2019-02-06T09:38:31.606Z,6996.00
2019-02-06T09:40:24.575Z,6976.00
2019-02-06T09:41:24.626Z,6932.00
2019-02-06T09:43:17.619Z,6892.00
2019-02-06T09:44:17.650Z,6884.00
2019-02-06T09:46:10.716Z,6824.00
2019-02-06T09:47:10.716Z,6768.00
2019-02-06T09:49:03.744Z,6476.00
2019-02-06T09:50:03.752Z,6280.00
2019-02-06T09:51:56.744Z,5984.00
2019-02-06T09:52:56.797Z,5864.00
2019-02-06T09:54:49.805Z,5536.00
2019-02-06T09:55:49.833Z,5432.00
2019-02-06T09:57:42.813Z,5088.00
2019-02-06T09:58:42.871Z,4920.00
2019-02-06T10:00:35.848Z,4516.00
2019-02-06T10:01:35.908Z,4372.00
2019-02-06T10:03:28.898Z,4472.00
2019-02-06T10:04:28.945Z,4436.00
2019-02-06T10:06:22.439Z,4288.00
2019-02-06T10:07:22.500Z,4184.00
2019-02-06T10:09:22.513Z,4044.00
2019-02-06T10:10:15.541Z,3560.00
2019-02-06T10:12:08.589Z,2944.00
2019-02-06T10:13:08.582Z,2952.00
2019-02-06T10:15:01.564Z,3096.00
2019-02-06T10:16:01.608Z,3136.00
2019-02-06T10:17:54.594Z,3364.00
2019-02-06T10:18:54.644Z,3532.00
2019-02-06T10:20:47.638Z,3568.00
2019-02-06T10:21:50.348Z,3636.00
2019-02-06T10:23:40.660Z,3992.00
2019-02-06T10:24:40.752Z,4052.00
2019-02-06T10:26:33.695Z,3812.00
2019-02-06T10:27:33.751Z,4168.00
2019-02-06T10:29:26.736Z,4360.00
2019-02-06T10:30:26.787Z,4568.00
2019-02-06T10:32:19.764Z,4796.00
2019-02-06T10:33:19.816Z,4820.00
2019-02-06T10:35:12.795Z,4788.00
2019-02-06T10:36:12.845Z,4980.00
2019-02-06T10:38:05.832Z,4996.00
2019-02-06T10:39:05.883Z,4892.00
2019-02-06T10:40:58.860Z,4576.00
2019-02-06T10:41:58.918Z,4312.00
2019-02-06T10:43:51.912Z,4036.00
2019-02-06T10:44:51.975Z,4028.00
2019-02-06T10:46:44.938Z,3932.00
2019-02-06T10:47:44.994Z,4072.00
2019-02-06T10:49:38.016Z,4072.00
2019-02-06T10:50:38.033Z,3968.00
2019-02-06T10:52:31.018Z,4052.00
2019-02-06T10:53:31.067Z,4120.00
2019-02-06T10:55:24.061Z,4172.00
2019-02-06T10:56:24.128Z,4368.00
2019-02-06T10:58:17.117Z,4464.00
2019-02-06T10:59:17.152Z,4452.00
2019-02-06T11:01:10.128Z,4280.00
2019-02-06T11:02:10.193Z,4084.00
2019-02-06T11:04:03.173Z,3936.00
2019-02-06T11:05:03.221Z,3980.00
2019-02-06T11:06:56.704Z,3872.00
2019-02-06T11:07:56.757Z,3756.00
2019-02-06T11:09:49.771Z,3820.00
2019-02-06T11:10:50.789Z,4212.00
2019-02-06T11:12:42.793Z,4680.00
2019-02-06T11:13:42.834Z,5016.00
2019-02-06T11:15:35.824Z,5308.00
2019-02-06T11:16:35.881Z,5400.00
2019-02-06T11:18:28.863Z,5056.00
2019-02-06T11:19:28.915Z,4792.00
2019-02-06T11:21:21.888Z,4840.00
2019-02-06T11:22:21.951Z,5052.00
2019-02-06T11:24:14.936Z,5084.00
2019-02-06T11:25:14.977Z,4912.00
2019-02-06T11:27:07.988Z,4644.00
2019-02-06T11:28:08.013Z,4748.00
2019-02-06T11:30:01.001Z,4976.00
2019-02-06T11:31:01.044Z,5056.00
2019-02-06T11:32:54.021Z,4720.00
2019-02-06T11:33:54.077Z,4552.00
2019-02-06T11:35:47.091Z,4552.00
2019-02-06T11:36:47.122Z,4604.00
2019-02-06T11:38:40.124Z,4880.00
2019-02-06T11:39:40.159Z,4852.00
2019-02-06T11:41:33.140Z,4200.00
2019-02-06T11:42:33.197Z,4036.00
2019-02-06T11:44:26.192Z,4012.00
2019-02-06T11:45:26.495Z,4116.00
2019-02-06T11:47:19.218Z,3788.00
2019-02-06T11:48:19.272Z,3896.00
2019-02-06T11:50:12.282Z,3692.00
2019-02-06T11:51:12.330Z,3612.00
2019-02-06T11:53:05.312Z,3572.00
2019-02-06T11:54:05.378Z,3520.00
2019-02-06T11:55:58.356Z,3308.00
2019-02-06T11:56:58.418Z,3260.00
2019-02-06T11:58:51.407Z,3456.00
2019-02-06T11:59:53.203Z,3304.00
2019-02-06T12:01:44.457Z,3244.00
2019-02-06T12:02:44.467Z,3592.00
2019-02-06T12:04:37.479Z,3708.00
2019-02-06T12:05:37.529Z,3556.00
2019-02-06T12:07:30.506Z,3724.00
2019-02-06T12:08:31.258Z,3916.00
2019-02-06T12:10:23.548Z,3752.00
2019-02-06T12:11:23.596Z,3700.00
2019-02-06T12:13:16.574Z,4316.00
2019-02-06T12:14:16.635Z,4196.00
2019-02-06T12:16:09.625Z,4732.00
2019-02-06T12:17:09.670Z,4200.00
2019-02-06T12:19:02.671Z,4204.00
2019-02-06T12:20:02.721Z,4236.00
2019-02-06T12:21:55.694Z,4372.00
2019-02-06T12:22:55.750Z,4336.00
2019-02-06T12:24:48.736Z,4204.00
2019-02-06T12:25:48.793Z,4064.00
2019-02-06T12:27:41.775Z,4176.00
2019-02-06T12:28:41.823Z,3912.00
2019-02-06T12:30:34.806Z,3628.00
2019-02-06T12:31:34.854Z,3636.00
2019-02-06T12:33:27.834Z,3640.00
2019-02-06T12:34:27.943Z,3792.00
2019-02-06T12:36:20.879Z,3944.00
2019-02-06T12:37:20.925Z,3688.00
2019-02-06T12:39:13.915Z,3700.00
2019-02-06T12:40:21.144Z,3596.00
2019-02-06T12:42:06.973Z,3420.00
2019-02-06T12:43:07.001Z,3532.00
2019-02-06T12:45:00.006Z,3256.00
2019-02-06T12:46:00.035Z,3276.00
2019-02-06T12:47:53.018Z,3352.00
2019-02-06T12:48:53.079Z,3556.00
2019-02-06T12:50:46.059Z,3696.00
2019-02-06T12:51:46.154Z,3560.00
2019-02-06T12:53:39.114Z,3592.00
2019-02-06T12:54:39.154Z,3340.00
2019-02-06T12:56:32.138Z,3472.00
2019-02-06T12:57:37.342Z,3560.00
2019-02-06T12:59:25.173Z,3608.00
2019-02-06T13:00:25.224Z,3328.00
2019-02-06T13:02:18.210Z,3328.00
2019-02-06T13:03:18.267Z,3168.00
2019-02-06T13:05:11.251Z,2976.00
2019-02-06T13:06:11.301Z,3124.00
2019-02-06T13:08:04.288Z,3016.00
2019-02-06T13:09:04.344Z,2920.00
2019-02-06T13:10:58.914Z,3128.00
2019-02-06T13:11:58.876Z,2656.00
2019-02-06T13:13:51.853Z,2972.00
2019-02-06T13:14:51.914Z,3192.00
2019-02-06T13:16:44.900Z,3304.00
2019-02-06T13:17:44.960Z,3236.00
2019-02-06T13:19:37.928Z,3036.00
2019-02-06T13:20:37.985Z,3460.00
2019-02-06T13:22:30.993Z,3268.00
2019-02-06T13:23:31.025Z,3048.00
2019-02-06T13:25:24.005Z,3604.00
2019-02-06T13:26:24.064Z,3684.00
2019-02-06T13:28:17.060Z,3852.00
2019-02-06T13:29:17.124Z,4084.00
2019-02-06T13:31:10.082Z,4044.00
2019-02-06T13:32:10.134Z,3680.00
2019-02-06T13:34:03.109Z,3696.00
2019-02-06T13:35:03.177Z,3700.00
2019-02-06T13:36:56.151Z,3436.00
2019-02-06T13:37:56.224Z,3760.00
2019-02-06T13:39:49.190Z,3888.00
2019-02-06T13:40:49.241Z,4116.00
2019-02-06T13:42:42.222Z,4036.00
2019-02-06T13:43:42.276Z,4028.00
2019-02-06T13:45:35.278Z,3984.00
2019-02-06T13:46:35.309Z,3980.00
2019-02-06T13:48:28.291Z,3920.00
2019-02-06T13:49:28.343Z,3956.00
2019-02-06T13:51:21.344Z,4100.00
2019-02-06T13:52:21.394Z,4020.00
2019-02-06T13:54:14.379Z,4040.00
2019-02-06T13:55:14.671Z,4164.00
2019-02-06T13:57:07.439Z,4284.00
2019-02-06T13:58:07.509Z,4164.00
2019-02-06T14:00:00.484Z,4244.00
2019-02-06T14:01:00.510Z,4240.00
2019-02-06T14:02:53.494Z,4220.00
2019-02-06T14:03:53.548Z,4196.00
2019-02-06T14:05:47.195Z,3960.00
2019-02-06T14:06:46.588Z,3972.00
2019-02-06T14:08:39.573Z,3812.00
2019-02-06T14:09:39.633Z,3644.00
2019-02-06T14:11:32.626Z,3476.00
2019-02-06T14:12:32.677Z,3352.00
2019-02-06T14:14:27.071Z,3080.00
2019-02-06T14:15:25.709Z,2916.00
2019-02-06T14:17:18.693Z,2796.00
2019-02-06T14:18:18.762Z,2988.00
2019-02-06T14:20:11.729Z,2772.00
2019-02-06T14:21:11.779Z,2808.00
2019-02-06T14:23:04.769Z,2624.00
2019-02-06T14:24:04.834Z,2476.00
2019-02-06T14:25:57.821Z,2272.00
2019-02-06T14:26:57.898Z,2364.00
2019-02-06T14:28:50.862Z,2452.00
2019-02-06T14:29:50.928Z,2412.00
2019-02-06T14:31:43.902Z,2344.00
2019-02-06T14:32:43.954Z,2456.00
2019-02-06T14:34:36.930Z,2288.00
2019-02-06T14:35:36.987Z,2244.00
2019-02-06T14:37:30.013Z,2200.00
2019-02-06T14:38:30.033Z,2336.00
2019-02-06T14:40:23.082Z,2516.00
2019-02-06T14:41:23.068Z,2552.00
2019-02-06T14:43:16.073Z,2788.00
2019-02-06T14:44:16.148Z,2776.00
2019-02-06T14:46:09.124Z,2832.00
2019-02-06T14:47:09.165Z,2712.00
2019-02-06T14:49:02.146Z,2500.00
2019-02-06T14:50:02.218Z,2256.00
2019-02-06T14:51:55.192Z,2112.00
2019-02-06T14:52:55.241Z,2024.00
2019-02-06T14:54:48.223Z,1856.00
2019-02-06T14:55:48.278Z,1820.00
2019-02-06T14:57:41.277Z,1744.00
2019-02-06T14:58:41.313Z,1656.00
2019-02-06T15:00:34.299Z,1632.00
2019-02-06T15:01:34.344Z,1636.00
2019-02-06T15:03:27.334Z,1740.00
2019-02-06T15:04:27.381Z,1860.00
2019-02-06T15:06:20.885Z,1920.00
2019-02-06T15:07:21.038Z,2060.00
2019-02-06T15:09:13.904Z,2112.00
2019-02-06T15:10:13.971Z,2056.00
2019-02-06T15:12:06.968Z,1888.00
2019-02-06T15:13:07.016Z,1836.00
2019-02-06T15:15:00.005Z,1612.00
2019-02-06T15:16:00.061Z,1460.00
2019-02-06T15:17:53.050Z,1224.00
2019-02-06T15:18:53.117Z,1152.00
2019-02-06T15:20:46.109Z,1068.00
2019-02-06T15:21:46.157Z,1008.00
2019-02-06T15:23:39.144Z,848.00
2019-02-06T15:24:39.208Z,780.00
2019-02-06T15:26:32.184Z,712.00
2019-02-06T15:27:32.236Z,704.00
2019-02-06T15:29:25.206Z,736.00
2019-02-06T15:30:25.264Z,748.00
2019-02-06T15:32:18.254Z,700.00
2019-02-06T15:33:18.307Z,684.00
2019-02-06T15:35:11.280Z,720.00
2019-02-06T15:36:11.345Z,684.00
2019-02-06T15:38:04.333Z,644.00
2019-02-06T15:39:04.380Z,628.00
2019-02-06T15:40:57.360Z,612.00
2019-02-06T15:41:57.420Z,592.00
2019-02-06T15:43:50.422Z,596.00
2019-02-06T15:44:50.540Z,604.00
2019-02-06T15:46:43.441Z,520.00
2019-02-06T15:47:43.490Z,540.00
2019-02-06T15:49:36.464Z,488.00
2019-02-06T15:50:36.525Z,460.00
2019-02-06T15:52:29.522Z,416.00
2019-02-06T15:53:29.575Z,380.00
2019-02-06T15:55:22.540Z,312.00
2019-02-06T15:56:22.609Z,300.00
2019-02-06T15:58:15.593Z,288.00
2019-02-06T15:59:15.651Z,284.00
2019-02-06T16:01:08.626Z,256.00
2019-02-06T16:02:08.683Z,244.00
2019-02-06T16:04:01.669Z,236.00
2019-02-06T16:05:01.714Z,228.00
2019-02-06T16:06:55.227Z,212.00
2019-02-06T16:07:55.248Z,196.00
2019-02-06T16:09:48.232Z,184.00
2019-02-06T16:10:48.295Z,180.00
2019-02-06T16:12:42.997Z,164.00
2019-02-06T16:13:41.325Z,152.00
2019-02-06T16:15:34.305Z,136.00
2019-02-06T16:16:34.370Z,132.00
2019-02-06T16:18:27.358Z,112.00
2019-02-06T16:19:27.405Z,104.00
2019-02-06T16:21:20.399Z,96.00
2019-02-06T16:22:20.453Z,88.00
2019-02-06T16:24:13.437Z,80.00
2019-02-06T16:25:13.490Z,76.00
2019-02-06T16:27:06.484Z,68.00
2019-02-06T16:28:06.528Z,56.00
2019-02-06T16:30:00.610Z,44.00
2019-02-06T16:30:59.577Z,44.00
2019-02-06T16:32:52.594Z,40.00
2019-02-06T16:33:52.595Z,36.00
2019-02-06T16:35:45.576Z,28.00
2019-02-06T16:36:45.650Z,24.00
2019-02-06T16:38:38.619Z,24.00
2019-02-06T16:39:38.667Z,20.00
2019-02-06T16:41:31.642Z,16.00
2019-02-06T16:42:31.719Z,12.00
2019-02-06T16:44:24.683Z,12.00
2019-02-06T16:45:24.732Z,8.00
2019-02-06T16:47:18.933Z,4.00
2019-02-06T16:48:17.768Z,8.00
2019-02-06T16:50:10.745Z,4.00
2019-02-06T16:51:10.799Z,4.00
2019-02-06T16:53:03.783Z,4.00
2019-02-06T16:54:03.831Z,0.00
2019-02-06T16:55:56.804Z,0.00
2019-02-06T16:56:56.866Z,0.00
2019-02-06T16:58:49.855Z,0.00
2019-02-06T16:59:49.898Z,0.00
2019-02-06T17:01:42.886Z,0.00
2019-02-06T17:02:42.936Z,0.00
2019-02-06T17:04:35.923Z,0.00
2019-02-06T17:05:35.973Z,0.00
2019-02-06T17:07:28.959Z,0.00
2019-02-06T17:08:29.006Z,0.00
2019-02-06T17:10:21.988Z,0.00
2019-02-06T17:11:22.042Z,0.00
2019-02-06T17:13:15.028Z,0.00
2019-02-06T17:14:15.076Z,0.00
2019-02-06T17:16:08.056Z,0.00
2019-02-06T17:17:08.263Z,0.00
2019-02-06T17:19:01.109Z,0.00
2019-02-06T17:20:01.158Z,0.00
2019-02-06T17:21:54.139Z,0.00
2019-02-06T17:22:54.189Z,0.00
2019-02-06T17:24:47.175Z,0.00
2019-02-06T17:25:47.227Z,0.00
2019-02-06T17:27:40.255Z,0.00
2019-02-06T17:28:40.259Z,0.00
2019-02-06T17:30:33.241Z,0.00
2019-02-06T17:31:33.301Z,0.00
2019-02-06T17:33:26.291Z,0.00
2019-02-06T17:34:26.337Z,0.00
2019-02-06T17:36:19.328Z,0.00
2019-02-06T17:37:19.377Z,0.00
2019-02-06T17:39:23.588Z,0.00
2019-02-06T17:40:12.410Z,0.00
2019-02-06T17:42:15.095Z,0.00
2019-02-06T17:43:05.447Z,0.00
2019-02-06T17:44:58.445Z,0.00
2019-02-06T17:45:58.478Z,0.00
2019-02-06T17:47:51.466Z,0.00
2019-02-06T17:48:51.519Z,0.00
2019-02-06T17:50:44.493Z,0.00
2019-02-06T17:51:44.552Z,0.00
2019-02-06T17:53:37.545Z,0.00
2019-02-06T17:54:37.581Z,0.00
2019-02-06T17:56:30.557Z,0.00
2019-02-06T17:57:30.861Z,0.00
2019-02-06T17:59:23.603Z,0.00
2019-02-06T18:00:23.643Z,0.00
2019-02-06T18:02:16.625Z,0.00
2019-02-06T18:03:16.680Z,0.00
2019-02-06T18:05:09.671Z,0.00
2019-02-06T18:06:09.727Z,0.00
2019-02-06T18:08:02.709Z,0.00
2019-02-06T18:09:02.769Z,0.00
2019-02-06T18:10:58.535Z,0.00
2019-02-06T18:11:55.804Z,0.00
2019-02-06T18:13:48.826Z,0.00
2019-02-06T18:14:48.855Z,0.00
2019-02-06T18:16:41.836Z,0.00